Time;durP1;ratioP1;P1;durP2;ratioP2;P2;SDS_P1;SDS_P2;PMS_P1;PMS_P2;Temp;Humidity;BMP_temperature;BMP_pressure;BME280_temperature;BME280_humidity;BME280_pressure;Samples;Min_cycle;Max_cycle;Signal;HPM_P1;HPM_P2
2023/11/20 00:01:28;;;;;;;11.55;2.15;;;16.30;79.60;;;;;;10532797;28;20059;-53
2023/11/20 00:06:30;;;;;;;6.78;2.60;;;16.30;79.60;;;;;;10531984;28;20027;-52
2023/11/20 00:11:31;;;;;;;4.75;2.13;;;16.30;79.70;;;;;;10532432;28;20028;-54
2023/11/20 00:16:32;;;;;;;5.53;2.30;;;16.30;79.60;;;;;;10520037;28;20035;-54
2023/11/20 00:21:33;;;;;;;8.90;2.50;;;16.30;79.60;;;;;;10540148;28;20082;-53
2023/11/20 00:26:34;;;;;;;7.38;3.13;;;16.30;79.60;;;;;;10539296;28;20340;-53
2023/11/20 00:31:35;;;;;;;5.78;2.20;;;16.30;79.50;;;;;;10539169;28;20040;-51
2023/11/20 00:36:35;;;;;;;6.78;2.30;;;16.30;79.50;;;;;;10539162;28;20024;-53
2023/11/20 00:41:36;;;;;;;9.70;2.78;;;16.20;79.50;;;;;;10567358;28;20027;-53
2023/11/20 00:46:36;;;;;;;5.38;2.17;;;16.20;79.50;;;;;;10580951;28;20681;-53
2023/11/20 00:51:37;;;;;;;5.65;1.92;;;16.20;79.40;;;;;;10580976;28;20552;-54
2023/11/20 00:56:37;;;;;;;5.97;2.13;;;16.20;79.40;;;;;;10562137;28;20016;-54
2023/11/20 01:01:38;;;;;;;4.95;1.65;;;16.20;79.40;;;;;;10579197;28;20028;-50
2023/11/20 01:06:39;;;;;;;5.22;2.40;;;16.20;79.60;;;;;;10537100;28;20715;-54
2023/11/20 01:11:42;;;;;;;5.85;1.85;;;16.20;79.30;;;;;;10537772;28;20491;-53
2023/11/20 01:16:43;;;;;;;5.35;1.92;;;16.20;79.50;;;;;;10537853;28;20024;-54
2023/11/20 01:21:45;;;;;;;6.60;2.03;;;16.20;79.50;;;;;;10537437;28;20024;-53
2023/11/20 01:26:45;;;;;;;4.28;1.50;;;16.20;79.50;;;;;;10537005;28;20348;-50
2023/11/20 01:31:46;;;;;;;4.38;1.95;;;16.20;79.50;;;;;;10537020;28;20040;-52
2023/11/20 01:36:46;;;;;;;4.93;1.80;;;16.20;79.60;;;;;;10536859;28;20047;-51
2023/11/20 01:41:47;;;;;;;5.28;2.03;;;16.20;80.10;;;;;;10536963;28;20028;-53
2023/11/20 01:46:49;;;;;;;4.38;1.85;;;16.10;79.20;;;;;;10536392;28;20530;-54
2023/11/20 01:51:50;;;;;;;7.55;2.00;;;16.10;79.40;;;;;;10536361;28;20023;-54
2023/11/20 01:56:50;;;;;;;7.57;1.80;;;16.10;79.20;;;;;;10517961;28;20020;-53
2023/11/20 02:01:51;;;;;;;7.78;2.10;;;16.10;79.40;;;;;;10517956;28;20043;-54
2023/11/20 02:06:51;;;;;;;4.28;2.45;;;16.10;79.30;;;;;;10539043;28;20047;-53
2023/11/20 02:11:52;;;;;;;7.53;1.92;;;16.10;79.30;;;;;;10535511;28;20051;-54
2023/11/20 02:16:53;;;;;;;4.65;2.17;;;16.10;79.50;;;;;;10535166;28;20016;-51
2023/11/20 02:21:53;;;;;;;4.47;1.85;;;16.10;79.20;;;;;;10535003;28;20093;-51
2023/11/20 02:27:33;;;;;;;4.78;1.95;;;16.10;79.40;;;;;;10517163;28;20075;-52
2023/11/20 02:32:33;;;;;;;5.30;2.28;;;16.10;79.40;;;;;;10539000;28;20040;-53
2023/11/20 02:37:34;;;;;;;4.22;2.08;;;16.00;79.40;;;;;;10533848;28;20054;-53
2023/11/20 02:42:35;;;;;;;6.30;2.28;;;16.10;79.40;;;;;;10534655;28;20155;-52
2023/11/20 02:47:36;;;;;;;6.07;2.50;;;16.10;79.40;;;;;;10533959;28;20028;-52
2023/11/20 02:52:36;;;;;;;5.57;1.58;;;16.10;79.40;;;;;;10534428;28;20016;-53
2023/11/20 02:57:37;;;;;;;5.95;1.92;;;16.00;79.20;;;;;;10515567;28;20020;-53
2023/11/20 03:02:38;;;;;;;5.15;2.72;;;16.00;79.10;;;;;;10533916;28;20024;-53
2023/11/20 03:07:38;;;;;;;5.65;1.50;;;16.00;78.90;;;;;;10522681;28;20103;-53
2023/11/20 03:12:39;;;;;;;4.82;1.52;;;16.00;79.20;;;;;;10533532;28;20028;-53
2023/11/20 03:17:39;;;;;;;4.80;1.70;;;16.00;79.10;;;;;;10532790;28;20174;-53
2023/11/20 03:22:40;;;;;;;3.95;1.30;;;16.00;79.20;;;;;;10533335;28;20375;-53
2023/11/20 03:27:41;;;;;;;6.43;2.20;;;16.00;79.30;;;;;;10533213;28;20032;-54
2023/11/20 03:32:42;;;;;;;7.10;1.85;;;16.00;79.30;;;;;;10566124;28;20043;-54
2023/11/20 03:37:43;;;;;;;3.03;1.27;;;16.00;78.80;;;;;;10538742;28;20027;-53
2023/11/20 03:42:43;;;;;;;8.23;2.38;;;16.00;78.70;;;;;;10532403;28;20024;-54
2023/11/20 03:47:44;;;;;;;3.95;1.63;;;16.00;78.80;;;;;;10534728;28;20024;-53
2023/11/20 03:52:44;;;;;;;4.65;1.45;;;16.00;78.80;;;;;;10541015;28;20378;-53
2023/11/20 03:57:45;;;;;;;4.78;1.95;;;16.00;78.80;;;;;;10541360;28;20055;-53
2023/11/20 04:02:46;;;;;;;3.50;1.40;;;16.00;78.80;;;;;;10540566;28;20562;-51
2023/11/20 04:07:47;;;;;;;5.97;2.22;;;16.00;79.20;;;;;;10522365;28;20032;-54
2023/11/20 04:12:47;;;;;;;4.72;1.73;;;16.00;79.30;;;;;;10540034;28;20031;-54
2023/11/20 04:17:48;;;;;;;3.58;1.25;;;16.00;79.20;;;;;;10540251;28;20039;-51
2023/11/20 04:22:49;;;;;;;3.38;1.50;;;16.00;79.00;;;;;;10539601;28;20028;-52
2023/11/20 04:27:51;;;;;;;3.92;1.42;;;15.90;79.20;;;;;;10540262;28;20685;-53
2023/11/20 04:32:52;;;;;;;3.15;1.17;;;16.00;79.00;;;;;;10545525;28;20051;-54
2023/11/20 04:37:52;;;;;;;3.50;1.58;;;15.90;79.20;;;;;;10535460;28;20028;-54
2023/11/20 04:42:53;;;;;;;3.78;2.25;;;15.90;78.70;;;;;;10518448;28;20028;-54
2023/11/20 04:47:54;;;;;;;4.93;1.90;;;16.00;79.10;;;;;;10521505;28;20052;-55
2023/11/20 04:52:54;;;;;;;3.20;1.38;;;16.00;78.90;;;;;;10520840;28;20468;-55
2023/11/20 04:57:57;;;;;;;3.72;1.85;;;16.00;79.20;;;;;;10518270;28;20475;-55
2023/11/20 05:02:57;;;;;;;5.18;1.50;;;16.00;79.20;;;;;;10519624;28;20036;-55
2023/11/20 05:07:59;;;;;;;4.32;1.20;;;16.10;79.10;;;;;;10498867;28;20024;-54
2023/11/20 05:13:00;;;;;;;4.57;1.42;;;16.00;79.10;;;;;;10537527;28;20489;-55
2023/11/20 05:18:01;;;;;;;5.70;1.50;;;16.00;79.00;;;;;;10538092;28;20095;-55
2023/11/20 05:23:01;;;;;;;5.13;1.60;;;16.00;78.90;;;;;;10537474;28;20126;-54
2023/11/20 05:28:02;;;;;;;2.85;1.15;;;16.00;79.00;;;;;;10537802;28;20039;-54
2023/11/20 05:33:02;;;;;;;4.10;1.30;;;15.90;78.90;;;;;;10573867;28;20126;-55
2023/11/20 05:38:03;;;;;;;3.97;1.23;;;15.90;78.90;;;;;;10550480;28;20020;-54
2023/11/20 05:43:04;;;;;;;3.35;1.40;;;16.00;78.80;;;;;;10536861;28;20370;-55
2023/11/20 05:48:04;;;;;;;5.13;1.90;;;16.10;78.40;;;;;;10536714;28;20140;-56
2023/11/20 05:53:05;;;;;;;4.43;1.10;;;16.40;77.30;;;;;;10549709;28;20491;-53
2023/11/20 05:58:06;;;;;;;4.30;1.77;;;16.60;76.50;;;;;;10529654;28;20035;-56
2023/11/20 06:03:07;;;;;;;3.03;1.48;;;16.70;76.00;;;;;;10527674;28;20427;-54
2023/11/20 06:08:08;;;;;;;3.47;1.65;;;16.90;75.40;;;;;;10531526;28;20039;-51
2023/11/20 06:13:09;;;;;;;5.25;1.98;;;17.10;75.00;;;;;;10534046;28;20114;-53
2023/11/20 06:18:09;;;;;;;4.25;2.15;;;17.30;74.80;;;;;;10535613;28;20020;-53
2023/11/20 06:23:10;;;;;;;6.72;1.95;;;17.50;74.60;;;;;;10535136;28;20047;-52
2023/11/20 06:28:10;;;;;;;4.63;1.73;;;17.50;74.60;;;;;;10535292;28;20024;-53
2023/11/20 06:33:11;;;;;;;8.02;2.13;;;17.60;74.60;;;;;;10572245;28;20044;-54
2023/11/20 06:38:12;;;;;;;12.18;2.85;;;17.70;74.20;;;;;;10518236;28;20043;-51
2023/11/20 06:43:13;;;;;;;26.42;5.00;;;17.60;74.50;;;;;;10518103;28;20024;-52
2023/11/20 06:48:13;;;;;;;34.10;4.95;;;17.50;75.00;;;;;;10537352;28;20533;-56
2023/11/20 06:53:14;;;;;;;30.40;4.55;;;17.50;75.40;;;;;;10575724;28;20697;-55
2023/11/20 06:58:14;;;;;;;27.55;4.72;;;17.50;75.50;;;;;;10576185;28;20058;-56
2023/11/20 07:03:15;;;;;;;29.60;6.35;;;17.40;75.70;;;;;;10575174;28;20034;-56
2023/11/20 07:08:21;;;;;;;36.72;5.82;;;17.40;75.60;;;;;;10547964;28;20050;-56
2023/11/20 07:13:22;;;;;;;26.75;5.43;;;17.40;76.00;;;;;;10551367;28;20028;-53
2023/11/20 07:18:22;;;;;;;27.77;5.43;;;17.50;75.90;;;;;;10500359;28;20023;-54
2023/11/20 07:23:23;;;;;;;23.13;4.28;;;17.40;75.50;;;;;;10532558;28;20418;-54
2023/11/20 07:28:23;;;;;;;22.77;4.60;;;17.40;75.30;;;;;;10532883;28;20028;-53
2023/11/20 07:33:24;;;;;;;18.10;4.75;;;17.40;75.40;;;;;;10531777;28;20048;-53
2023/11/20 07:38:26;;;;;;;18.02;4.38;;;17.30;75.70;;;;;;10532671;28;20044;-54
2023/11/20 07:43:26;;;;;;;16.10;4.22;;;17.40;76.10;;;;;;10531955;28;20027;-53
2023/11/20 07:48:28;;;;;;;19.35;3.83;;;17.40;75.50;;;;;;10514539;28;20020;-52
2023/11/20 07:53:29;;;;;;;19.35;3.92;;;17.60;75.20;;;;;;10531173;28;20031;-53
2023/11/20 07:58:30;;;;;;;22.55;4.20;;;17.90;74.30;;;;;;10532482;28;20027;-53
2023/11/20 08:03:30;;;;;;;12.35;3.60;;;18.00;73.70;;;;;;10513503;28;20042;-53
2023/11/20 08:08:31;;;;;;;14.30;3.33;;;18.20;73.20;;;;;;10531927;28;20562;-53
2023/11/20 08:13:31;;;;;;;19.45;4.18;;;18.30;72.70;;;;;;10530444;28;20036;-53
2023/11/20 08:18:34;;;;;;;15.82;2.50;;;18.40;72.60;;;;;;10533695;28;20074;-52
2023/11/20 08:23:34;;;;;;;13.70;3.35;;;18.50;72.50;;;;;;10531987;28;20439;-50
2023/11/20 08:28:35;;;;;;;15.07;3.20;;;18.60;72.20;;;;;;10545057;28;20028;-50
2023/11/20 08:33:35;;;;;;;13.85;2.58;;;18.70;72.00;;;;;;10528467;28;20047;-55
2023/11/20 08:38:36;;;;;;;14.98;2.40;;;18.70;71.80;;;;;;10544744;28;20077;-49
2023/11/20 08:43:36;;;;;;;8.85;2.47;;;18.80;71.50;;;;;;10538469;28;20024;-49
2023/11/20 08:48:37;;;;;;;6.88;2.58;;;18.90;71.30;;;;;;10537578;28;20028;-49
2023/11/20 08:53:37;;;;;;;9.48;2.28;;;18.90;71.30;;;;;;10517833;28;20029;-49
2023/11/20 08:58:38;;;;;;;11.00;2.35;;;18.90;71.30;;;;;;10520608;28;20481;-51
2023/11/20 09:03:39;;;;;;;9.55;2.35;;;19.00;71.30;;;;;;10519676;28;20028;-53
2023/11/20 09:08:39;;;;;;;9.05;2.47;;;19.00;71.20;;;;;;10520654;28;20112;-52
2023/11/20 09:13:40;;;;;;;11.48;3.33;;;19.00;71.10;;;;;;10520534;28;20027;-48
2023/11/20 09:18:41;;;;;;;9.90;2.50;;;19.10;71.00;;;;;;10529789;28;20043;-53
2023/11/20 09:23:44;;;;;;;7.45;2.10;;;19.10;71.00;;;;;;10537603;28;20020;-53
2023/11/20 09:28:46;;;;;;;16.30;2.80;;;19.00;71.20;;;;;;10538128;28;20107;-53
2023/11/20 09:33:48;;;;;;;8.57;2.15;;;19.10;71.00;;;;;;10536534;28;20755;-51
2023/11/20 09:38:49;;;;;;;9.48;2.28;;;19.10;71.00;;;;;;10537366;28;20555;-54
2023/11/20 09:43:50;;;;;;;9.80;2.88;;;19.20;70.70;;;;;;10536813;28;20020;-53
2023/11/20 09:48:50;;;;;;;13.57;3.30;;;19.20;70.60;;;;;;10527924;28;20031;-53
2023/11/20 09:53:52;;;;;;;9.52;2.00;;;19.30;70.60;;;;;;10518134;28;20043;-52
2023/11/20 09:58:53;;;;;;;8.50;2.92;;;19.40;70.70;;;;;;10510782;28;20480;-52
2023/11/20 10:03:54;;;;;;;9.32;2.90;;;19.40;70.40;;;;;;10531903;28;20024;-52
2023/11/20 10:08:56;;;;;;;10.75;3.53;;;19.50;70.50;;;;;;10517388;28;20016;-51
2023/11/20 10:13:56;;;;;;;8.73;2.10;;;19.50;70.30;;;;;;10517270;28;20031;-51
2023/11/20 10:18:57;;;;;;;11.60;2.58;;;19.60;70.40;;;;;;10517273;28;20494;-51
2023/11/20 10:23:59;;;;;;;5.78;1.70;;;19.50;70.40;;;;;;10535257;28;20121;-53
2023/11/20 10:29:00;;;;;;;9.15;2.22;;;19.60;70.30;;;;;;10538255;28;20031;-54
2023/11/20 10:34:06;;;;;;;8.93;2.03;;;19.60;70.40;;;;;;10571097;28;20046;-53
2023/11/20 10:39:08;;;;;;;7.43;2.17;;;19.50;70.30;;;;;;10535248;28;20081;-53
2023/11/20 10:44:09;;;;;;;9.93;1.88;;;19.50;70.40;;;;;;10534837;28;20085;-54
2023/11/20 10:49:10;;;;;;;6.55;1.70;;;19.50;70.70;;;;;;10547472;28;20028;-53
2023/11/20 10:54:15;;;;;;;9.00;2.10;;;19.50;70.40;;;;;;10530664;28;20028;-53
2023/11/20 10:59:21;;;;;;;4.55;1.48;;;19.50;70.50;;;;;;10573569;28;20092;-53
2023/11/20 11:04:24;;;;;;;6.63;1.80;;;19.60;70.30;;;;;;10558022;28;20020;-52
2023/11/20 11:09:27;;;;;;;6.57;1.70;;;19.60;70.10;;;;;;10550353;28;20085;-53
2023/11/20 11:14:28;;;;;;;5.78;1.48;;;19.70;69.90;;;;;;10532405;28;20073;-52
2023/11/20 11:19:45;;;;;;;3.97;1.55;;;19.70;69.90;;;;;;10557326;28;20037;-53
2023/11/20 11:24:47;;;;;;;3.80;1.50;;;19.70;70.10;;;;;;10575134;28;20016;-54
2023/11/20 11:29:56;;;;;;;5.40;2.40;;;19.60;70.20;;;;;;10547868;28;20126;-52
2023/11/20 11:35:40;;;;;;;5.32;1.55;;;19.50;70.40;;;;;;10544101;28;20089;-53
2023/11/20 11:41:00;;;;;;;6.45;1.83;;;19.40;70.60;;;;;;10532913;28;20047;-53
2023/11/20 11:46:04;;;;;;;4.45;1.40;;;19.30;70.80;;;;;;10532140;28;20027;-53
2023/11/20 11:51:18;;;;;;;5.05;1.63;;;19.20;71.10;;;;;;10533022;28;20020;-52
2023/11/20 11:56:19;;;;;;;4.45;1.65;;;19.20;71.20;;;;;;10531827;28;20043;-52
2023/11/20 12:01:19;;;;;;;6.88;3.03;;;19.20;71.30;;;;;;10531434;28;20031;-53
2023/11/20 12:06:21;;;;;;;10.13;2.08;;;19.10;71.40;;;;;;10531351;28;20032;-51
2023/11/20 12:11:52;;;;;;;8.00;2.47;;;19.20;71.40;;;;;;10537812;28;20352;-53
2023/11/20 12:17:01;;;;;;;9.95;1.95;;;19.20;70.50;;;;;;10538985;28;20023;-50
2023/11/20 12:22:03;;;;;;;12.60;2.67;;;19.20;71.20;;;;;;10539596;28;20093;-48
2023/11/20 12:27:03;;;;;;;10.32;2.00;;;19.30;71.30;;;;;;10525974;28;20089;-50
2023/11/20 12:32:06;;;;;;;8.20;1.73;;;19.40;71.30;;;;;;10538798;28;20047;-50
2023/11/20 12:37:06;;;;;;;11.77;2.40;;;19.30;71.90;;;;;;10539581;28;20031;-48
2023/11/20 12:42:08;;;;;;;7.25;2.03;;;19.20;72.60;;;;;;10535391;28;20030;-53
2023/11/20 12:47:08;;;;;;;6.32;1.95;;;19.10;72.90;;;;;;10560808;28;20085;-52
2023/11/20 12:52:11;;;;;;;9.52;1.42;;;19.00;73.20;;;;;;10552962;28;20074;-51
2023/11/20 12:57:11;;;;;;;8.07;1.70;;;18.90;73.00;;;;;;10538922;28;20051;-53
2023/11/20 13:02:13;;;;;;;5.53;1.52;;;18.80;73.00;;;;;;10554196;28;20027;-53
2023/11/20 13:07:13;;;;;;;8.25;1.80;;;18.80;73.00;;;;;;10538523;28;20609;-54
2023/11/20 13:12:14;;;;;;;9.32;3.05;;;18.80;73.00;;;;;;10535569;28;20103;-53
2023/11/20 13:17:16;;;;;;;10.77;2.13;;;18.80;73.40;;;;;;10579020;28;20032;-54
2023/11/20 13:22:17;;;;;;;13.25;2.47;;;18.80;72.90;;;;;;10579939;28;20027;-51
2023/11/20 13:27:17;;;;;;;16.80;5.00;;;19.00;74.30;;;;;;10558655;28;20036;-54
2023/11/20 13:32:19;;;;;;;14.38;3.47;;;19.10;73.80;;;;;;10519266;28;20056;-54
2023/11/20 13:37:19;;;;;;;18.13;3.42;;;19.10;74.00;;;;;;10537296;28;20069;-54
2023/11/20 13:42:20;;;;;;;16.40;3.30;;;19.00;75.00;;;;;;10508935;28;20108;-51
2023/11/20 13:47:21;;;;;;;10.20;3.05;;;18.90;74.70;;;;;;10572146;28;20141;-54
2023/11/20 13:52:21;;;;;;;20.15;3.85;;;18.90;75.30;;;;;;10579549;28;20383;-55
2023/11/20 13:57:23;;;;;;;15.65;3.35;;;18.80;75.40;;;;;;10534250;28;20034;-55
2023/11/20 14:02:23;;;;;;;29.88;4.95;;;18.80;75.70;;;;;;10527900;28;20032;-54
2023/11/20 14:07:24;;;;;;;26.77;5.13;;;18.80;76.00;;;;;;10518239;28;20054;-55
2023/11/20 14:12:24;;;;;;;21.02;3.67;;;18.80;76.90;;;;;;10529880;28;20503;-54
2023/11/20 14:17:25;;;;;;;23.27;3.63;;;18.70;76.80;;;;;;10532789;28;20031;-54
2023/11/20 14:22:27;;;;;;;24.30;3.88;;;18.70;76.90;;;;;;10536031;28;20039;-52
2023/11/20 14:27:28;;;;;;;22.42;4.30;;;18.60;76.90;;;;;;10535337;28;20035;-54
2023/11/20 14:32:28;;;;;;;23.90;4.50;;;18.60;76.80;;;;;;10542256;28;20060;-54
2023/11/20 14:37:29;;;;;;;23.30;5.25;;;18.60;76.20;;;;;;10535643;28;20047;-54
2023/11/20 14:42:31;;;;;;;44.67;6.38;;;18.60;76.30;;;;;;10516591;28;20020;-55
2023/11/20 14:47:32;;;;;;;41.22;8.45;;;18.60;76.50;;;;;;10514396;28;20357;-55
2023/11/20 14:52:32;;;;;;;45.25;7.80;;;18.60;76.80;;;;;;10497932;28;20032;-54
2023/11/20 14:57:34;;;;;;;42.83;7.60;;;18.60;77.20;;;;;;10521120;28;20045;-55
2023/11/20 15:02:36;;;;;;;44.70;8.15;;;18.70;77.50;;;;;;10530759;28;20024;-54
2023/11/20 15:07:37;;;;;;;50.80;8.18;;;18.70;78.30;;;;;;10537592;28;20024;-56
2023/11/20 15:12:38;;;;;;;30.90;6.43;;;18.60;77.90;;;;;;10525343;28;20095;-52
2023/11/20 15:17:39;;;;;;;37.17;7.57;;;18.60;77.40;;;;;;10508911;28;20024;-54
2023/11/20 15:22:40;;;;;;;35.17;7.97;;;18.60;76.30;;;;;;10533601;28;20415;-54
2023/11/20 15:27:42;;;;;;;41.05;15.98;;;18.50;76.80;;;;;;10533278;28;20035;-52
2023/11/20 15:32:47;;;;;;;35.30;13.50;;;18.50;75.00;;;;;;10520385;28;20122;-51
2023/11/20 15:37:48;;;;;;;36.03;11.75;;;18.70;74.40;;;;;;10532857;28;20092;-52
2023/11/20 15:42:48;;;;;;;35.08;9.48;;;18.80;76.50;;;;;;10533928;28;20076;-53
2023/11/20 15:47:50;;;;;;;35.20;8.93;;;19.10;76.10;;;;;;10532486;28;20085;-53
2023/11/20 15:52:51;;;;;;;33.53;8.70;;;19.30;76.40;;;;;;10556634;28;20034;-54
2023/11/20 15:57:52;;;;;;;30.85;8.93;;;19.30;76.60;;;;;;10574598;28;20087;-50
2023/11/20 16:02:53;;;;;;;42.42;9.45;;;19.30;76.80;;;;;;10541564;28;20059;-51
2023/11/20 16:07:54;;;;;;;29.33;7.88;;;19.10;76.50;;;;;;10531983;28;20804;-53
2023/11/20 16:12:54;;;;;;;32.20;8.77;;;19.00;77.00;;;;;;10519075;28;20391;-54
2023/11/20 16:17:55;;;;;;;21.83;7.60;;;18.90;76.60;;;;;;10513582;28;20027;-55
2023/11/20 16:22:56;;;;;;;29.67;7.80;;;18.90;77.40;;;;;;10498006;28;20496;-54
2023/11/20 16:27:56;;;;;;;27.52;6.80;;;18.80;77.80;;;;;;10508856;28;20024;-55
2023/11/20 16:32:57;;;;;;;28.92;7.68;;;18.80;78.30;;;;;;10524398;28;20040;-56
2023/11/20 16:38:01;;;;;;;29.80;8.15;;;18.70;78.30;;;;;;10508246;28;20074;-53
2023/11/20 16:43:02;;;;;;;21.73;7.13;;;18.70;78.70;;;;;;10519582;28;20028;-54
2023/11/20 16:48:03;;;;;;;22.45;6.00;;;18.60;78.70;;;;;;10508644;28;20077;-53
2023/11/20 16:53:04;;;;;;;23.33;6.80;;;18.60;78.50;;;;;;10497990;28;20035;-52
2023/11/20 16:58:05;;;;;;;19.33;6.07;;;18.60;78.50;;;;;;10512510;28;20553;-52
2023/11/20 17:03:06;;;;;;;14.45;5.93;;;18.50;78.60;;;;;;10515327;28;20032;-55
2023/11/20 17:08:07;;;;;;;17.15;6.03;;;18.50;78.70;;;;;;10516598;28;20048;-54
2023/11/20 17:13:08;;;;;;;13.80;5.15;;;18.50;78.80;;;;;;10512949;28;20059;-54
2023/11/20 17:18:08;;;;;;;17.52;5.30;;;18.50;78.80;;;;;;10517013;28;20055;-54
2023/11/20 17:23:11;;;;;;;19.08;4.97;;;18.50;78.60;;;;;;10517994;28;20051;-54
2023/11/20 17:28:12;;;;;;;15.88;5.43;;;18.50;78.60;;;;;;10528263;28;20474;-55
2023/11/20 17:33:13;;;;;;;16.33;5.18;;;18.40;78.60;;;;;;10525875;28;20051;-53
2023/11/20 17:38:13;;;;;;;27.85;6.53;;;18.40;78.40;;;;;;10514722;28;20023;-52
2023/11/20 17:43:14;;;;;;;22.70;7.15;;;18.30;80.10;;;;;;10517390;28;20115;-56
2023/11/20 17:48:14;;;;;;;25.13;6.22;;;18.60;78.90;;;;;;10528250;28;20134;-54
2023/11/20 17:53:15;;;;;;;26.27;6.05;;;18.70;78.30;;;;;;10525011;28;20028;-53
2023/11/20 17:58:15;;;;;;;21.08;5.55;;;18.70;78.70;;;;;;10534104;28;20145;-53
2023/11/20 18:03:16;;;;;;;27.17;7.20;;;18.70;77.90;;;;;;10533290;28;20521;-54
2023/11/20 18:08:17;;;;;;;24.45;6.07;;;18.50;77.90;;;;;;10527350;28;20043;-54
2023/11/20 18:13:18;;;;;;;20.90;7.00;;;18.40;78.10;;;;;;10531718;28;20020;-54
2023/11/20 18:18:19;;;;;;;15.23;5.35;;;18.40;78.00;;;;;;10528036;28;20475;-54
2023/11/20 18:23:20;;;;;;;16.58;4.85;;;18.30;78.10;;;;;;10512926;28;20024;-53
2023/11/20 18:28:20;;;;;;;17.23;5.55;;;18.30;78.00;;;;;;10500364;28;20017;-54
2023/11/20 18:33:22;;;;;;;13.13;4.68;;;18.40;77.70;;;;;;10530631;28;20048;-52
2023/11/20 18:38:22;;;;;;;13.45;5.45;;;18.40;77.20;;;;;;10528737;28;20581;-55
2023/11/20 18:43:23;;;;;;;15.77;4.50;;;18.50;76.60;;;;;;10503117;28;20124;-54
2023/11/20 18:48:23;;;;;;;15.75;4.72;;;18.60;76.40;;;;;;10516984;28;20028;-54
2023/11/20 18:53:24;;;;;;;13.75;4.90;;;18.60;76.10;;;;;;10501614;28;20490;-54
2023/11/20 18:58:25;;;;;;;13.82;4.70;;;18.60;75.70;;;;;;10525449;28;20447;-53
2023/11/20 19:03:25;;;;;;;13.93;4.97;;;18.70;75.40;;;;;;10515600;28;20023;-54
2023/11/20 19:08:27;;;;;;;9.38;4.22;;;18.70;75.60;;;;;;10516553;28;20498;-54
2023/11/20 19:13:28;;;;;;;15.02;4.63;;;18.70;75.40;;;;;;10515187;28;20024;-54
2023/11/20 19:18:29;;;;;;;13.20;3.75;;;18.70;75.20;;;;;;10520767;28;20062;-55
2023/11/20 19:23:31;;;;;;;11.95;5.00;;;18.70;75.20;;;;;;10515043;28;20456;-53
2023/11/20 19:28:31;;;;;;;13.23;4.72;;;18.70;75.10;;;;;;10522699;28;20052;-54
2023/11/20 19:33:32;;;;;;;14.20;4.63;;;18.70;75.00;;;;;;10505754;28;20530;-54
2023/11/20 19:38:34;;;;;;;6.88;3.85;;;18.80;74.90;;;;;;10510942;28;20088;-53
2023/11/20 19:43:36;;;;;;;8.88;4.32;;;18.80;74.90;;;;;;10519848;28;20036;-55
2023/11/20 19:48:36;;;;;;;9.00;4.50;;;18.80;74.70;;;;;;10513532;28;20119;-53
2023/11/20 19:53:37;;;;;;;10.95;4.50;;;18.80;74.70;;;;;;10518812;28;20042;-52
2023/11/20 19:58:37;;;;;;;10.32;3.85;;;18.80;74.60;;;;;;10526503;28;20028;-52
2023/11/20 20:03:38;;;;;;;8.88;4.32;;;18.80;74.50;;;;;;10513940;28;20028;-54
2023/11/20 20:08:38;;;;;;;7.88;3.75;;;18.70;74.70;;;;;;10524241;28;20051;-54
2023/11/20 20:13:40;;;;;;;8.75;4.25;;;18.80;74.70;;;;;;10543169;28;20127;-56
2023/11/20 20:18:41;;;;;;;6.07;3.25;;;18.80;74.50;;;;;;10549003;28;20055;-55
2023/11/20 20:23:42;;;;;;;7.68;3.63;;;18.70;74.40;;;;;;10532162;28;20026;-55
2023/11/20 20:28:45;;;;;;;6.38;3.75;;;18.70;74.30;;;;;;10520713;28;20043;-54
2023/11/20 20:33:45;;;;;;;6.00;3.60;;;18.70;74.30;;;;;;10514540;28;20048;-54
2023/11/20 20:38:46;;;;;;;7.28;3.85;;;18.70;74.10;;;;;;10540350;28;20508;-55
2023/11/20 20:43:48;;;;;;;10.00;5.10;;;18.70;74.20;;;;;;10539597;28;20467;-56
2023/11/20 20:48:48;;;;;;;5.80;3.67;;;18.70;74.10;;;;;;10539712;28;20030;-55
2023/11/20 20:53:49;;;;;;;6.72;3.47;;;18.70;74.10;;;;;;10575041;28;20026;-55
2023/11/20 20:58:50;;;;;;;6.68;4.20;;;18.70;74.00;;;;;;10541225;28;20059;-55
2023/11/20 21:03:50;;;;;;;7.93;3.40;;;18.80;73.80;;;;;;10535030;28;20455;-53
2023/11/20 21:08:52;;;;;;;5.53;3.42;;;18.80;73.60;;;;;;10538888;28;20049;-55
2023/11/20 21:13:52;;;;;;;7.88;3.92;;;18.70;73.70;;;;;;10538110;28;20035;-55
2023/11/20 21:18:53;;;;;;;7.40;3.60;;;18.70;74.00;;;;;;10538565;28;20024;-56
2023/11/20 21:23:53;;;;;;;6.13;3.40;;;18.60;74.10;;;;;;10538396;28;20028;-55
2023/11/20 21:28:54;;;;;;;5.00;3.40;;;18.50;74.40;;;;;;10519805;28;20028;-55
2023/11/20 21:33:54;;;;;;;6.05;4.18;;;18.40;74.50;;;;;;10550395;28;20671;-54
2023/11/20 21:38:55;;;;;;;7.97;3.83;;;18.30;74.70;;;;;;10557116;28;20024;-55
2023/11/20 21:43:55;;;;;;;11.43;4.07;;;18.30;74.90;;;;;;10578887;28;20036;-56
2023/11/20 21:48:56;;;;;;;6.32;3.92;;;18.20;75.10;;;;;;10579709;28;20030;-55
2023/11/20 21:53:57;;;;;;;6.25;3.50;;;18.10;75.30;;;;;;10562982;28;20080;-55
2023/11/20 21:58:57;;;;;;;6.45;2.97;;;18.10;75.60;;;;;;10537333;28;20028;-55
2023/11/20 22:03:58;;;;;;;6.38;3.50;;;18.00;75.60;;;;;;10536455;28;20087;-54
2023/11/20 22:08:58;;;;;;;6.07;3.35;;;18.00;75.80;;;;;;10536916;28;20028;-55
2023/11/20 22:13:59;;;;;;;7.53;4.35;;;17.90;75.80;;;;;;10536050;28;20024;-55
2023/11/20 22:19:00;;;;;;;4.55;3.25;;;17.90;75.80;;;;;;10536291;28;20020;-55
2023/11/20 22:24:00;;;;;;;5.95;3.25;;;17.90;75.90;;;;;;10535712;28;20624;-55
2023/11/20 22:29:03;;;;;;;5.55;4.35;;;17.80;75.90;;;;;;10538599;28;20028;-55
2023/11/20 22:34:05;;;;;;;4.00;3.35;;;17.80;75.90;;;;;;10571299;28;20036;-52
2023/11/20 22:39:06;;;;;;;6.47;3.58;;;17.80;76.00;;;;;;10535467;28;20021;-55
2023/11/20 22:44:06;;;;;;;4.60;2.97;;;17.70;76.10;;;;;;10534852;28;20028;-54
2023/11/20 22:49:07;;;;;;;5.88;3.50;;;17.70;76.10;;;;;;10535223;28;20024;-55
2023/11/20 22:54:07;;;;;;;5.45;3.58;;;17.70;76.20;;;;;;10533862;28;20157;-54
2023/11/20 22:59:09;;;;;;;5.65;3.20;;;17.70;76.30;;;;;;10534840;28;20016;-56
2023/11/20 23:04:09;;;;;;;6.70;3.83;;;17.60;76.30;;;;;;10534246;28;20040;-56
2023/11/20 23:09:10;;;;;;;5.35;3.50;;;17.60;76.20;;;;;;10534071;28;20020;-54
2023/11/20 23:14:10;;;;;;;4.63;3.60;;;17.60;76.20;;;;;;10562218;28;20031;-54
2023/11/20 23:19:11;;;;;;;5.70;3.95;;;17.60;76.30;;;;;;10576152;28;20047;-55
2023/11/20 23:24:12;;;;;;;6.80;3.45;;;17.50;76.30;;;;;;10575475;28;20042;-55
2023/11/20 23:29:13;;;;;;;6.50;3.80;;;17.50;76.20;;;;;;10556534;28;20471;-55
2023/11/20 23:34:14;;;;;;;5.38;3.25;;;17.40;76.20;;;;;;10532890;28;20491;-55
2023/11/20 23:39:14;;;;;;;5.57;4.32;;;17.40;76.20;;;;;;10533481;28;20097;-55
2023/11/20 23:44:15;;;;;;;6.10;3.38;;;17.40;76.20;;;;;;10514807;28;20047;-55
2023/11/20 23:49:17;;;;;;;5.22;3.75;;;17.40;76.10;;;;;;10536799;28;20032;-55
2023/11/20 23:54:17;;;;;;;3.25;2.92;;;17.40;76.00;;;;;;10532489;28;20030;-54
2023/11/20 23:59:18;;;;;;;4.47;3.42;;;17.30;76.10;;;;;;10533187;28;20369;-54
